WLBY18 YAMB-YAMB
Flight info
| Callsign | WLBY18 |
|---|---|
| Flight time | 0h 38m |
| Altitude | 6000 |
| Route | DCT |
| Aircraft | C160/M-SDFGHIRTUY/L |
Departure
| Time | 2026-05-04 12:21 |
|---|---|
| Airport | RAAF Base Amberley (YAMB) |
Arrival
| Time | 2026-05-04 12:59 |
|---|---|
| Airport | RAAF Base Amberley (YAMB) |
| Time | Latitude | Longitude | Altitude | Speed | Heading |
|---|---|---|---|---|---|
| 2026-05-04 12:20 | -27.64658 | 152.71613 | 101 ft | 0 kts | 339° |
| 2026-05-04 12:20 | -27.64650 | 152.71609 | 99 ft | 9 kts | 338° |
| 2026-05-04 12:20 | -27.64478 | 152.71533 | 100 ft | 70 kts | 339° |
| 2026-05-04 12:21 | -27.63543 | 152.71097 | 246 ft | 133 kts | 336° |
| 2026-05-04 12:21 | -27.62948 | 152.70805 | 419 ft | 141 kts | 338° |
| 2026-05-04 12:21 | -27.61767 | 152.70196 | 869 ft | 143 kts | 334° |
| 2026-05-04 12:21 | -27.61141 | 152.69861 | 1011 ft | 150 kts | 333° |
| 2026-05-04 12:22 | -27.59799 | 152.69466 | 1191 ft | 155 kts | 7° |
| 2026-05-04 12:22 | -27.59136 | 152.69758 | 1174 ft | 158 kts | 34° |
| 2026-05-04 12:22 | -27.58524 | 152.70752 | 1247 ft | 156 kts | 74° |
| 2026-05-04 12:22 | -27.58653 | 152.71941 | 1284 ft | 158 kts | 112° |
| 2026-05-04 12:23 | -27.59236 | 152.73013 | 1231 ft | 164 kts | 125° |
| 2026-05-04 12:23 | -27.60013 | 152.73924 | 1265 ft | 162 kts | 137° |
| 2026-05-04 12:23 | -27.60862 | 152.74766 | 1250 ft | 163 kts | 137° |
| 2026-05-04 12:23 | -27.61735 | 152.75635 | 1116 ft | 167 kts | 139° |
| 2026-05-04 12:24 | -27.62637 | 152.76451 | 1127 ft | 165 kts | 141° |
| 2026-05-04 12:24 | -27.63546 | 152.77219 | 1167 ft | 161 kts | 142° |
| 2026-05-04 12:24 | -27.64533 | 152.77666 | 1372 ft | 151 kts | 172° |
| 2026-05-04 12:24 | -27.65594 | 152.77431 | 1112 ft | 168 kts | 206° |
| 2026-05-04 12:25 | -27.66419 | 152.76571 | 1062 ft | 156 kts | 233° |
| 2026-05-04 12:25 | -27.67012 | 152.75491 | 999 ft | 167 kts | 241° |
| 2026-05-04 12:25 | -27.67377 | 152.74312 | 1271 ft | 149 kts | 262° |
| 2026-05-04 12:25 | -27.67237 | 152.73168 | 1185 ft | 150 kts | 292° |
| 2026-05-04 12:26 | -27.66519 | 152.72297 | 692 ft | 162 kts | 343° |
| 2026-05-04 12:26 | -27.65425 | 152.71933 | 301 ft | 163 kts | 342° |
| 2026-05-04 12:26 | -27.64417 | 152.71493 | 103 ft | 140 kts | 340° |
| 2026-05-04 12:26 | -27.63477 | 152.71073 | 171 ft | 153 kts | 339° |
| 2026-05-04 12:27 | -27.62488 | 152.70627 | 434 ft | 157 kts | 339° |
| 2026-05-04 12:27 | -27.61458 | 152.70198 | 654 ft | 156 kts | 341° |
| 2026-05-04 12:27 | -27.60411 | 152.69932 | 845 ft | 156 kts | 6° |
| 2026-05-04 12:27 | -27.59531 | 152.70561 | 958 ft | 154 kts | 59° |
| 2026-05-04 12:28 | -27.59504 | 152.71758 | 922 ft | 159 kts | 109° |
| 2026-05-04 12:28 | -27.60187 | 152.72705 | 1012 ft | 155 kts | 145° |
| 2026-05-04 12:28 | -27.61160 | 152.73262 | 1048 ft | 158 kts | 154° |
| 2026-05-04 12:28 | -27.62123 | 152.73803 | 1211 ft | 153 kts | 151° |
| 2026-05-04 12:29 | -27.63095 | 152.74397 | 1131 ft | 161 kts | 150° |
| 2026-05-04 12:29 | -27.64080 | 152.75037 | 1108 ft | 162 kts | 149° |
| 2026-05-04 12:29 | -27.65057 | 152.75614 | 1165 ft | 158 kts | 160° |
| 2026-05-04 12:29 | -27.66094 | 152.75654 | 1205 ft | 149 kts | 194° |
| 2026-05-04 12:30 | -27.66920 | 152.74976 | 1107 ft | 150 kts | 230° |
| 2026-05-04 12:30 | -27.67302 | 152.73891 | 922 ft | 149 kts | 264° |
| 2026-05-04 12:30 | -27.67065 | 152.72814 | 829 ft | 144 kts | 301° |
| 2026-05-04 12:30 | -27.66244 | 152.72126 | 477 ft | 160 kts | 338° |
| 2026-05-04 12:31 | -27.65126 | 152.71771 | 257 ft | 165 kts | 343° |
| 2026-05-04 12:31 | -27.64112 | 152.71358 | 107 ft | 147 kts | 339° |
| 2026-05-04 12:31 | -27.63147 | 152.70929 | 183 ft | 157 kts | 336° |
| 2026-05-04 12:31 | -27.62128 | 152.70440 | 444 ft | 159 kts | 339° |
| 2026-05-04 12:32 | -27.61116 | 152.69996 | 770 ft | 156 kts | 340° |
| 2026-05-04 12:32 | -27.59110 | 152.70501 | 1046 ft | 158 kts | 46° |
| 2026-05-04 12:32 | -27.58638 | 152.71635 | 989 ft | 162 kts | 79° |
| 2026-05-04 12:33 | -27.58576 | 152.72878 | 1033 ft | 161 kts | 90° |
| 2026-05-04 12:33 | -27.58626 | 152.74146 | 1035 ft | 161 kts | 96° |
| 2026-05-04 12:33 | -27.59007 | 152.75290 | 1090 ft | 160 kts | 125° |
| 2026-05-04 12:33 | -27.59875 | 152.76037 | 1167 ft | 148 kts | 159° |
| 2026-05-04 12:34 | -27.60751 | 152.75846 | 1139 ft | 133 kts | 208° |
| 2026-05-04 12:34 | -27.61588 | 152.75092 | 883 ft | 162 kts | 221° |
| 2026-05-04 12:34 | -27.62350 | 152.74123 | 613 ft | 169 kts | 233° |
| 2026-05-04 12:34 | -27.63027 | 152.73043 | 315 ft | 169 kts | 233° |
| 2026-05-04 12:35 | -27.63699 | 152.72004 | 157 ft | 151 kts | 234° |
| 2026-05-04 12:35 | -27.64276 | 152.71097 | 195 ft | 147 kts | 233° |
| 2026-05-04 12:35 | -27.64922 | 152.70142 | 469 ft | 156 kts | 231° |
| 2026-05-04 12:35 | -27.65668 | 152.69127 | 729 ft | 187 kts | 230° |
| 2026-05-04 12:36 | -27.66430 | 152.67916 | 1356 ft | 191 kts | 237° |
| 2026-05-04 12:36 | -27.67167 | 152.66557 | 1669 ft | 209 kts | 240° |
| 2026-05-04 12:36 | -27.67613 | 152.64993 | 2114 ft | 214 kts | 258° |
| 2026-05-04 12:36 | -27.67886 | 152.63310 | 2472 ft | 224 kts | 259° |
| 2026-05-04 12:37 | -27.68192 | 152.61513 | 2598 ft | 241 kts | 258° |
| 2026-05-04 12:37 | -27.68533 | 152.59685 | 3105 ft | 231 kts | 258° |
| 2026-05-04 12:37 | -27.68819 | 152.57938 | 3489 ft | 227 kts | 259° |
| 2026-05-04 12:37 | -27.69117 | 152.56160 | 3634 ft | 231 kts | 258° |
| 2026-05-04 12:38 | -27.69483 | 152.54453 | 3986 ft | 225 kts | 255° |
| 2026-05-04 12:38 | -27.69857 | 152.52724 | 4278 ft | 223 kts | 256° |
| 2026-05-04 12:38 | -27.70218 | 152.51022 | 4882 ft | 226 kts | 256° |
| 2026-05-04 12:38 | -27.70620 | 152.49237 | 5154 ft | 243 kts | 256° |
| 2026-05-04 12:39 | -27.70816 | 152.47341 | 5622 ft | 242 kts | 272° |
| 2026-05-04 12:39 | -27.70461 | 152.45516 | 6106 ft | 238 kts | 293° |
| 2026-05-04 12:39 | -27.69558 | 152.43946 | 6271 ft | 242 kts | 314° |
| 2026-05-04 12:39 | -27.68138 | 152.42981 | 6268 ft | 248 kts | 344° |
| 2026-05-04 12:40 | -27.66405 | 152.43087 | 6039 ft | 257 kts | 26° |
| 2026-05-04 12:40 | -27.65112 | 152.44348 | 6258 ft | 249 kts | 61° |
| 2026-05-04 12:40 | -27.64648 | 152.46236 | 5979 ft | 263 kts | 93° |
| 2026-05-04 12:40 | -27.65194 | 152.48267 | 5626 ft | 271 kts | 121° |
| 2026-05-04 12:41 | -27.66371 | 152.49820 | 6022 ft | 257 kts | 140° |
| 2026-05-04 12:41 | -27.67950 | 152.50779 | 6078 ft | 259 kts | 163° |
| 2026-05-04 12:41 | -27.69659 | 152.50747 | 6664 ft | 241 kts | 197° |
| 2026-05-04 12:41 | -27.71125 | 152.49753 | 6534 ft | 257 kts | 226° |
| 2026-05-04 12:42 | -27.71328 | 152.49499 | 6512 ft | 259 kts | 230° |
| 2026-05-04 12:44 | -27.71486 | 152.49275 | 6486 ft | 260 kts | 233° |
| 2026-05-04 12:44 | -27.72268 | 152.47374 | 5991 ft | 277 kts | 258° |
| 2026-05-04 12:44 | -27.72248 | 152.45285 | 5872 ft | 256 kts | 285° |
| 2026-05-04 12:45 | -27.71318 | 152.43647 | 5485 ft | 250 kts | 325° |
| 2026-05-04 12:45 | -27.69760 | 152.43120 | 5485 ft | 234 kts | 1° |
| 2026-05-04 12:45 | -27.68211 | 152.43583 | 5292 ft | 233 kts | 29° |
| 2026-05-04 12:45 | -27.66966 | 152.44722 | 5042 ft | 237 kts | 48° |
| 2026-05-04 12:46 | -27.66113 | 152.46340 | 5170 ft | 243 kts | 70° |
| 2026-05-04 12:46 | -27.65845 | 152.48237 | 5180 ft | 250 kts | 90° |
| 2026-05-04 12:46 | -27.66141 | 152.50183 | 5191 ft | 254 kts | 107° |
| 2026-05-04 12:46 | -27.66731 | 152.52053 | 5264 ft | 254 kts | 109° |
| 2026-05-04 12:47 | -27.67323 | 152.53893 | 5408 ft | 252 kts | 109° |
| 2026-05-04 12:47 | -27.67352 | 152.53984 | 5417 ft | 252 kts | 109° |
| 2026-05-04 12:50 | -27.67687 | 152.55066 | 5579 ft | 248 kts | 108° |
| 2026-05-04 12:50 | -27.68134 | 152.56934 | 5778 ft | 247 kts | 99° |
| 2026-05-04 12:50 | -27.68182 | 152.58875 | 5746 ft | 255 kts | 83° |
| 2026-05-04 12:50 | -27.67700 | 152.60714 | 5872 ft | 252 kts | 68° |
| 2026-05-04 12:51 | -27.67011 | 152.62610 | 5816 ft | 259 kts | 66° |
| 2026-05-04 12:51 | -27.66299 | 152.64479 | 5858 ft | 258 kts | 66° |
| 2026-05-04 12:51 | -27.65597 | 152.66345 | 5902 ft | 259 kts | 66° |
| 2026-05-04 12:51 | -27.64860 | 152.68222 | 5840 ft | 263 kts | 65° |
| 2026-05-04 12:52 | -27.64074 | 152.70111 | 5650 ft | 269 kts | 64° |
| 2026-05-04 12:52 | -27.63281 | 152.71973 | 4829 ft | 252 kts | 65° |
| 2026-05-04 12:52 | -27.62722 | 152.73788 | 3549 ft | 241 kts | 84° |
| 2026-05-04 12:52 | -27.63098 | 152.75476 | 2838 ft | 216 kts | 127° |
| 2026-05-04 12:53 | -27.64394 | 152.76290 | 2239 ft | 226 kts | 168° |
| 2026-05-04 12:53 | -27.65977 | 152.76167 | 1759 ft | 230 kts | 196° |
| 2026-05-04 12:53 | -27.67280 | 152.75262 | 1439 ft | 222 kts | 225° |
| 2026-05-04 12:53 | -27.67851 | 152.73899 | 1371 ft | 160 kts | 265° |
| 2026-05-04 12:54 | -27.67478 | 152.72773 | 1071 ft | 163 kts | 314° |
| 2026-05-04 12:54 | -27.66383 | 152.72256 | 583 ft | 177 kts | 347° |
| 2026-05-04 12:54 | -27.65225 | 152.71862 | 246 ft | 171 kts | 336° |
| 2026-05-04 12:54 | -27.64159 | 152.71380 | 127 ft | 160 kts | 338° |
| 2026-05-04 12:55 | -27.63113 | 152.70909 | 217 ft | 165 kts | 339° |
| 2026-05-04 12:55 | -27.62049 | 152.70407 | 525 ft | 164 kts | 338° |
| 2026-05-04 12:55 | -27.60984 | 152.69909 | 760 ft | 167 kts | 337° |
| 2026-05-04 12:55 | -27.60005 | 152.69272 | 1022 ft | 165 kts | 316° |
| 2026-05-04 12:56 | -27.59467 | 152.68104 | 982 ft | 174 kts | 277° |
| 2026-05-04 12:56 | -27.59804 | 152.66862 | 1170 ft | 168 kts | 230° |
| 2026-05-04 12:56 | -27.60858 | 152.66263 | 1133 ft | 177 kts | 183° |
| 2026-05-04 12:56 | -27.62098 | 152.66261 | 1138 ft | 178 kts | 179° |
| 2026-05-04 12:57 | -27.63288 | 152.66547 | 1158 ft | 179 kts | 155° |
| 2026-05-04 12:57 | -27.64441 | 152.67136 | 987 ft | 185 kts | 147° |
| 2026-05-04 12:57 | -27.65462 | 152.67866 | 1096 ft | 163 kts | 141° |
| 2026-05-04 12:57 | -27.66347 | 152.68618 | 1152 ft | 159 kts | 137° |
| 2026-05-04 12:58 | -27.67200 | 152.69441 | 1029 ft | 166 kts | 138° |
| 2026-05-04 12:58 | -27.67849 | 152.70440 | 1031 ft | 151 kts | 102° |
| 2026-05-04 12:58 | -27.67606 | 152.71590 | 794 ft | 160 kts | 49° |
| 2026-05-04 12:58 | -27.66655 | 152.72228 | 584 ft | 168 kts | 13° |
| 2026-05-04 12:59 | -27.65588 | 152.72040 | 294 ft | 147 kts | 334° |
| 2026-05-04 12:59 | -27.64579 | 152.71573 | 110 ft | 147 kts | 340° |
| 2026-05-04 12:59 | -27.63936 | 152.71295 | 101 ft | 39 kts | 338° |
| 2026-05-04 12:59 | -27.63842 | 152.71253 | 102 ft | 14 kts | 338° |
| 2026-05-04 13:00 | -27.63721 | 152.71202 | 101 ft | 24 kts | 342° |
| 2026-05-04 13:00 | -27.63543 | 152.71126 | 97 ft | 22 kts | 341° |
| 2026-05-04 13:00 | -27.63439 | 152.71081 | 94 ft | 16 kts | 330° |
| 2026-05-04 13:00 | -27.63381 | 152.70931 | 96 ft | 18 kts | 282° |
| 2026-05-04 13:01 | -27.63372 | 152.70887 | 98 ft | 9 kts | 279° |
| 2026-05-04 13:01 | -27.63397 | 152.70853 | 97 ft | 6 kts | 185° |
| 2026-05-04 13:01 | -27.63454 | 152.70871 | 97 ft | 11 kts | 160° |
| 2026-05-04 13:01 | -27.63529 | 152.70902 | 100 ft | 8 kts | 171° |
| 2026-05-04 13:02 | -27.63564 | 152.70854 | 97 ft | 9 kts | 252° |
| 2026-05-04 13:02 | -27.63609 | 152.70735 | 95 ft | 17 kts | 247° |
| 2026-05-04 13:02 | -27.63640 | 152.70683 | 96 ft | 5 kts | 188° |
| 2026-05-04 13:02 | -27.63663 | 152.70683 | 94 ft | 2 kts | 181° |
| 2026-05-04 13:03 | -27.63666 | 152.70682 | 94 ft | 0 kts | 181° |